Time;durP1;ratioP1;P1;durP2;ratioP2;P2;SDS_P1;SDS_P2;PMS_P1;PMS_P2;Temp;Humidity;BMP_temperature;BMP_pressure;BME280_temperature;BME280_humidity;BME280_pressure;Samples;Min_cycle;Max_cycle;Signal;HPM_P1;HPM_P2
2021/09/18 00:01:43;;;;;;;4.35;3.15;;;15.10;95.40;;;;;;5107368;28;20492;-76
2021/09/18 00:04:09;;;;;;;3.47;2.75;;;15.00;95.30;;;;;;5107833;28;20035;-75
2021/09/18 00:06:35;;;;;;;6.75;2.90;;;14.90;95.40;;;;;;5099036;28;20464;-75
2021/09/18 00:09:02;;;;;;;5.13;2.97;;;14.90;95.40;;;;;;5111284;28;20024;-75
2021/09/18 00:11:28;;;;;;;7.18;3.10;;;14.80;95.50;;;;;;5131206;27;20023;-75
2021/09/18 00:13:53;;;;;;;4.13;2.80;;;14.80;95.60;;;;;;5094037;28;20028;-75
2021/09/18 00:16:19;;;;;;;4.38;2.85;;;14.80;95.70;;;;;;5093868;28;20016;-75
2021/09/18 00:18:45;;;;;;;4.40;2.90;;;14.80;95.60;;;;;;5110003;28;20528;-76
2021/09/18 00:21:10;;;;;;;4.90;3.10;;;14.80;95.70;;;;;;5148732;27;20057;-75
2021/09/18 00:23:36;;;;;;;3.63;2.88;;;14.80;95.70;;;;;;5115954;28;20023;-76
2021/09/18 00:26:02;;;;;;;3.65;2.88;;;14.70;95.80;;;;;;5102620;28;20031;-75
2021/09/18 00:28:28;;;;;;;3.95;2.80;;;14.70;95.80;;;;;;5141952;27;20065;-75
2021/09/18 00:30:54;;;;;;;5.68;3.30;;;14.80;95.70;;;;;;5097731;28;20059;-75
2021/09/18 00:33:19;;;;;;;5.40;3.03;;;14.70;95.70;;;;;;5110333;27;20431;-76
2021/09/18 00:35:45;;;;;;;5.32;2.72;;;14.70;95.70;;;;;;5135536;27;20039;-76
2021/09/18 00:38:12;;;;;;;3.42;2.80;;;14.80;95.60;;;;;;5103086;28;20025;-74
2021/09/18 00:40:38;;;;;;;4.97;3.03;;;14.70;95.60;;;;;;5109557;28;20020;-75
2021/09/18 00:43:04;;;;;;;3.88;3.05;;;14.70;95.70;;;;;;5100960;28;20190;-74
2021/09/18 00:45:29;;;;;;;4.07;3.03;;;14.70;95.70;;;;;;5108515;28;20032;-75
2021/09/18 00:47:55;;;;;;;4.72;2.90;;;14.60;95.80;;;;;;5102462;28;20024;-75
2021/09/18 00:50:21;;;;;;;6.47;3.03;;;14.70;95.60;;;;;;5099727;28;20039;-75
2021/09/18 00:52:47;;;;;;;4.47;3.13;;;14.80;95.50;;;;;;5092792;28;20024;-75
2021/09/18 00:55:13;;;;;;;3.80;3.05;;;14.80;95.40;;;;;;5108738;28;20134;-73
2021/09/18 00:57:41;;;;;;;4.85;3.10;;;14.70;95.30;;;;;;5101554;28;20128;-74
2021/09/18 01:00:09;;;;;;;5.32;3.83;;;14.70;95.40;;;;;;5102441;28;20024;-75
2021/09/18 01:02:35;;;;;;;5.75;3.03;;;14.60;95.40;;;;;;5142987;27;20469;-75
2021/09/18 01:05:01;;;;;;;4.07;3.08;;;14.60;95.60;;;;;;5129959;27;20039;-75
2021/09/18 01:07:27;;;;;;;4.80;2.95;;;14.60;95.50;;;;;;5108614;28;20016;-74
2021/09/18 01:09:53;;;;;;;3.67;2.75;;;14.60;95.40;;;;;;5102956;28;20110;-74
2021/09/18 01:12:19;;;;;;;4.47;3.00;;;14.60;95.40;;;;;;5101053;28;20020;-74
2021/09/18 01:14:46;;;;;;;3.90;3.20;;;14.50;95.40;;;;;;5109221;28;20039;-75
2021/09/18 01:17:13;;;;;;;3.92;3.15;;;14.50;95.50;;;;;;5130652;27;20024;-75
2021/09/18 01:19:38;;;;;;;3.80;2.92;;;14.40;95.50;;;;;;5106458;28;20421;-74
2021/09/18 01:22:06;;;;;;;6.13;3.20;;;14.40;95.80;;;;;;5104917;28;20153;-75
2021/09/18 01:24:31;;;;;;;4.60;3.22;;;14.30;95.90;;;;;;5099506;28;20044;-74
2021/09/18 01:26:57;;;;;;;4.18;2.95;;;14.30;95.90;;;;;;5109936;28;20024;-75
2021/09/18 01:29:22;;;;;;;5.70;3.15;;;14.30;96.00;;;;;;5131564;27;20027;-74
2021/09/18 01:31:48;;;;;;;3.63;2.78;;;14.30;96.10;;;;;;5104497;28;20028;-75
2021/09/18 01:34:22;;;;;;;6.07;3.70;;;14.30;96.30;;;;;;5105871;28;20038;-75
2021/09/18 01:36:49;;;;;;;5.18;3.28;;;14.30;96.20;;;;;;5112646;28;20100;-75
2021/09/18 01:39:16;;;;;;;6.57;3.38;;;14.30;96.10;;;;;;5097198;28;20032;-75
2021/09/18 01:41:44;;;;;;;3.83;3.10;;;14.20;96.10;;;;;;5105711;28;20035;-75
2021/09/18 01:44:14;;;;;;;4.03;3.42;;;14.10;96.20;;;;;;5103750;28;20392;-74
2021/09/18 01:46:40;;;;;;;4.40;3.03;;;14.10;96.30;;;;;;5097706;28;20474;-74
2021/09/18 01:49:13;;;;;;;4.20;3.42;;;14.10;96.40;;;;;;5142859;27;20525;-74
2021/09/18 01:52:47;;;;;;;6.70;4.18;;;14.00;96.40;;;;;;5133535;27;20429;-74
2021/09/18 01:54:41;;;;;;;7.35;4.00;;;14.10;96.60;;;;;;5078476;28;20471;-74
2021/09/18 01:57:08;;;;;;;5.32;3.80;;;14.10;96.50;;;;;;5142086;27;20514;-74
2021/09/18 01:59:34;;;;;;;5.18;3.70;;;14.00;96.70;;;;;;5128805;27;20107;-76
2021/09/18 02:02:00;;;;;;;8.77;4.15;;;14.00;96.70;;;;;;5136563;27;20111;-75
2021/09/18 02:04:25;;;;;;;6.20;4.20;;;14.00;96.90;;;;;;5099750;28;20067;-75
2021/09/18 02:06:51;;;;;;;9.73;4.10;;;14.00;97.00;;;;;;5109747;28;20457;-76
2021/09/18 02:09:17;;;;;;;7.70;4.15;;;14.00;97.10;;;;;;5097614;28;20578;-75
2021/09/18 02:11:42;;;;;;;6.05;4.03;;;14.00;97.10;;;;;;5103726;28;20030;-75
2021/09/18 02:14:08;;;;;;;7.40;3.88;;;13.90;97.10;;;;;;5103569;28;20046;-75
2021/09/18 02:16:34;;;;;;;8.93;4.15;;;13.90;97.00;;;;;;5097179;28;20028;-74
2021/09/18 02:18:59;;;;;;;4.95;3.72;;;13.90;97.00;;;;;;5108487;28;20478;-75
2021/09/18 02:21:25;;;;;;;5.20;3.70;;;13.90;97.10;;;;;;5098721;28;20076;-75
2021/09/18 02:23:50;;;;;;;5.82;3.75;;;13.90;97.00;;;;;;5102117;28;20043;-77
2021/09/18 02:26:16;;;;;;;6.15;3.60;;;13.90;97.00;;;;;;5106562;28;20029;-75
2021/09/18 02:28:42;;;;;;;7.45;4.05;;;13.90;97.10;;;;;;5095395;28;20124;-75
2021/09/18 02:31:08;;;;;;;8.25;3.88;;;13.90;97.00;;;;;;5141790;27;20347;-75
2021/09/18 02:33:33;;;;;;;7.53;4.32;;;13.90;96.90;;;;;;5098289;28;20027;-75
2021/09/18 02:35:59;;;;;;;5.07;4.05;;;13.90;96.90;;;;;;5100229;28;20032;-76
2021/09/18 02:38:24;;;;;;;5.50;3.47;;;14.00;96.90;;;;;;5092495;28;20051;-75
2021/09/18 02:40:53;;;;;;;5.53;3.83;;;13.90;97.00;;;;;;5107520;28;20028;-77
2021/09/18 02:43:19;;;;;;;5.32;3.70;;;13.90;97.00;;;;;;5096232;28;20020;-76
2021/09/18 02:45:45;;;;;;;6.47;3.80;;;13.90;96.90;;;;;;5138034;27;20038;-75
2021/09/18 02:48:11;;;;;;;8.02;3.75;;;13.90;97.10;;;;;;5102903;28;20466;-74
2021/09/18 02:50:36;;;;;;;5.03;3.60;;;13.90;97.10;;;;;;5095963;28;20028;-75
2021/09/18 02:53:03;;;;;;;4.80;3.78;;;13.80;97.10;;;;;;5107335;28;20027;-76
2021/09/18 02:55:29;;;;;;;5.53;3.40;;;13.80;97.10;;;;;;5130813;27;20051;-76
2021/09/18 02:57:55;;;;;;;4.30;3.28;;;13.70;97.10;;;;;;5101908;28;20077;-76
2021/09/18 03:00:20;;;;;;;8.07;3.50;;;13.70;97.00;;;;;;5106526;28;20073;-75
2021/09/18 03:02:46;;;;;;;4.25;3.42;;;13.70;97.00;;;;;;5094888;28;20468;-76
2021/09/18 03:05:13;;;;;;;5.95;3.58;;;13.70;96.80;;;;;;5142575;27;20035;-75
2021/09/18 03:07:39;;;;;;;4.90;3.63;;;13.70;96.70;;;;;;5133019;27;20487;-75
2021/09/18 03:10:06;;;;;;;3.92;2.97;;;13.60;96.70;;;;;;5099758;28;20024;-75
2021/09/18 03:12:32;;;;;;;3.78;3.33;;;13.60;96.70;;;;;;5117689;27;20032;-75
2021/09/18 03:14:58;;;;;;;4.72;3.60;;;13.60;96.70;;;;;;5109436;28;20105;-76
2021/09/18 03:17:23;;;;;;;5.00;3.60;;;13.60;96.80;;;;;;5112342;28;20038;-78
2021/09/18 03:19:51;;;;;;;7.30;3.40;;;13.50;96.80;;;;;;5113239;28;20080;-78
2021/09/18 03:22:17;;;;;;;4.65;3.13;;;13.60;96.80;;;;;;5112745;28;20023;-78
2021/09/18 03:24:43;;;;;;;5.18;3.53;;;13.50;96.80;;;;;;5112895;28;20036;-78
2021/09/18 03:27:09;;;;;;;5.80;3.45;;;13.60;96.80;;;;;;5112302;28;20486;-78
2021/09/18 03:29:35;;;;;;;5.72;3.55;;;13.60;96.80;;;;;;5113799;28;20042;-78
2021/09/18 03:32:01;;;;;;;4.35;3.45;;;13.50;96.70;;;;;;5112094;28;20100;-78
2021/09/18 03:34:26;;;;;;;5.60;3.75;;;13.50;96.80;;;;;;5146905;27;20032;-78
2021/09/18 03:36:52;;;;;;;6.00;3.97;;;13.50;96.80;;;;;;5112842;28;20517;-78
2021/09/18 03:39:17;;;;;;;6.28;3.90;;;13.50;96.90;;;;;;5112624;28;20031;-78
2021/09/18 03:41:43;;;;;;;5.15;3.30;;;13.50;96.80;;;;;;5107758;28;20024;-78
2021/09/18 03:44:09;;;;;;;5.28;3.47;;;13.50;96.70;;;;;;5093002;28;20042;-78
2021/09/18 03:46:34;;;;;;;5.95;3.78;;;13.50;96.80;;;;;;5093479;28;20376;-78
2021/09/18 03:49:00;;;;;;;6.30;3.50;;;13.30;97.00;;;;;;5092641;28;20025;-78
2021/09/18 03:51:25;;;;;;;5.22;3.20;;;13.40;97.10;;;;;;5092579;28;20027;-78
2021/09/18 03:53:51;;;;;;;6.00;3.50;;;13.40;97.30;;;;;;5092738;28;20469;-78
2021/09/18 03:56:17;;;;;;;5.82;3.30;;;13.30;96.90;;;;;;5092177;28;20032;-78
2021/09/18 03:58:42;;;;;;;4.32;3.30;;;13.30;97.00;;;;;;5092319;28;20054;-78
2021/09/18 04:01:08;;;;;;;5.28;3.35;;;13.30;97.00;;;;;;5092670;28;20028;-78
2021/09/18 04:03:33;;;;;;;6.55;3.30;;;13.20;97.00;;;;;;5096796;28;20036;-78
2021/09/18 04:05:59;;;;;;;4.55;3.40;;;13.20;97.20;;;;;;5096342;28;20032;-78
2021/09/18 04:08:25;;;;;;;6.07;3.58;;;13.30;97.10;;;;;;5096555;28;20093;-78
2021/09/18 04:10:50;;;;;;;5.65;3.40;;;13.30;96.90;;;;;;5094972;28;20476;-77
2021/09/18 04:13:16;;;;;;;4.93;3.35;;;13.30;96.80;;;;;;5096584;28;20031;-78
2021/09/18 04:15:41;;;;;;;5.40;3.90;;;13.30;96.90;;;;;;5095725;28;20035;-78
2021/09/18 04:18:07;;;;;;;7.03;3.72;;;13.30;97.00;;;;;;5096325;28;20123;-78
2021/09/18 04:20:33;;;;;;;6.13;3.60;;;13.30;97.00;;;;;;5095430;28;20020;-78
2021/09/18 04:22:59;;;;;;;6.70;3.50;;;13.30;97.00;;;;;;5096048;28;20145;-78
2021/09/18 04:25:25;;;;;;;5.47;3.45;;;13.30;97.10;;;;;;5096011;28;20074;-78
2021/09/18 04:27:51;;;;;;;8.02;3.72;;;13.20;96.90;;;;;;5094623;28;20357;-78
2021/09/18 04:30:17;;;;;;;6.13;3.70;;;13.20;97.10;;;;;;5094598;28;20034;-78
2021/09/18 04:32:43;;;;;;;4.07;3.30;;;13.20;97.20;;;;;;5095220;28;20052;-78
2021/09/18 04:35:09;;;;;;;7.70;3.55;;;13.10;97.20;;;;;;5094333;28;20060;-78
2021/09/18 04:37:35;;;;;;;5.45;3.67;;;13.10;97.10;;;;;;5094924;28;20055;-78
2021/09/18 04:40:00;;;;;;;5.35;3.92;;;13.10;97.00;;;;;;5094401;28;20024;-78
2021/09/18 04:42:26;;;;;;;5.28;3.40;;;13.10;97.10;;;;;;5095892;28;20030;-78
2021/09/18 04:44:51;;;;;;;5.68;3.55;;;13.10;97.20;;;;;;5094406;28;20423;-77
2021/09/18 04:47:17;;;;;;;4.22;3.30;;;13.10;97.20;;;;;;5096106;28;20480;-77
2021/09/18 04:49:43;;;;;;;4.63;3.30;;;13.00;97.10;;;;;;5096197;28;20031;-78
2021/09/18 04:52:09;;;;;;;4.70;3.55;;;13.00;97.20;;;;;;5093951;28;20020;-78
2021/09/18 04:54:34;;;;;;;4.47;3.47;;;13.00;97.30;;;;;;5095488;28;20063;-78
2021/09/18 04:57:00;;;;;;;4.28;3.53;;;12.90;97.40;;;;;;5093739;28;20024;-77
2021/09/18 04:59:25;;;;;;;4.65;3.50;;;12.90;97.40;;;;;;5095354;28;20461;-77
2021/09/18 05:01:51;;;;;;;5.32;3.20;;;12.90;97.40;;;;;;5095100;28;20035;-78
2021/09/18 05:04:17;;;;;;;4.68;3.40;;;12.90;97.30;;;;;;5095043;28;20032;-78
2021/09/18 05:06:42;;;;;;;10.18;3.42;;;12.90;97.30;;;;;;5095830;28;20027;-78
2021/09/18 05:09:08;;;;;;;6.45;3.75;;;12.90;97.30;;;;;;5093809;28;20464;-78
2021/09/18 05:11:34;;;;;;;6.35;3.50;;;12.90;97.30;;;;;;5094299;28;20028;-78
2021/09/18 05:13:59;;;;;;;5.78;3.38;;;12.90;97.40;;;;;;5094576;28;20042;-77
2021/09/18 05:16:25;;;;;;;5.05;3.92;;;12.90;97.40;;;;;;5094388;28;20025;-77
2021/09/18 05:18:51;;;;;;;4.57;3.53;;;12.90;97.30;;;;;;5094168;28;20027;-78
2021/09/18 05:21:16;;;;;;;8.95;3.55;;;12.90;97.30;;;;;;5095306;28;20024;-78
2021/09/18 05:23:42;;;;;;;5.75;3.25;;;12.90;97.40;;;;;;5094253;28;20506;-78
2021/09/18 05:26:09;;;;;;;5.10;3.78;;;12.90;97.40;;;;;;5094076;28;20044;-78
2021/09/18 05:28:34;;;;;;;5.50;3.55;;;12.80;97.40;;;;;;5094175;28;20084;-78
2021/09/18 05:31:00;;;;;;;5.00;3.58;;;12.90;97.40;;;;;;5127754;27;20028;-78
2021/09/18 05:33:26;;;;;;;6.68;3.45;;;12.80;97.80;;;;;;5094079;28;20051;-78
2021/09/18 05:35:51;;;;;;;4.80;3.30;;;12.80;97.50;;;;;;5093052;28;20094;-77
2021/09/18 05:38:17;;;;;;;7.70;3.53;;;12.80;97.50;;;;;;5095073;28;20024;-78
2021/09/18 05:40:43;;;;;;;4.97;3.83;;;12.90;97.50;;;;;;5094488;28;20067;-78
2021/09/18 05:43:08;;;;;;;6.38;3.47;;;12.90;97.30;;;;;;5093173;28;20024;-78
2021/09/18 05:45:34;;;;;;;4.22;3.10;;;12.90;97.10;;;;;;5093416;28;20035;-78
2021/09/18 05:48:03;;;;;;;5.78;3.50;;;13.00;97.30;;;;;;5093059;28;20032;-77
2021/09/18 05:50:29;;;;;;;4.78;3.28;;;13.00;97.20;;;;;;5093314;28;20027;-77
2021/09/18 05:52:55;;;;;;;4.25;3.25;;;13.10;96.90;;;;;;5092941;28;20028;-78
2021/09/18 05:55:20;;;;;;;5.28;3.40;;;13.00;96.80;;;;;;5092390;28;20052;-77
2021/09/18 05:57:46;;;;;;;4.88;3.38;;;13.00;96.80;;;;;;5093275;28;20020;-77
2021/09/18 06:00:12;;;;;;;5.22;3.28;;;12.90;97.00;;;;;;5092434;28;20052;-77
2021/09/18 06:02:41;;;;;;;8.65;3.38;;;12.90;97.20;;;;;;5093444;28;20027;-77
2021/09/18 06:05:10;;;;;;;4.60;3.20;;;13.00;97.30;;;;;;5126599;27;20060;-77
2021/09/18 06:07:36;;;;;;;5.47;3.17;;;13.10;97.30;;;;;;5127253;27;20031;-77
2021/09/18 06:10:05;;;;;;;5.07;3.10;;;13.10;97.20;;;;;;5126680;27;20024;-77
2021/09/18 06:12:31;;;;;;;5.20;3.15;;;13.20;97.10;;;;;;5093850;28;20072;-77
2021/09/18 06:14:57;;;;;;;7.18;3.50;;;13.20;97.20;;;;;;5092554;28;20074;-77
2021/09/18 06:17:23;;;;;;;4.68;2.88;;;13.10;97.30;;;;;;5093213;28;20056;-78
2021/09/18 06:19:48;;;;;;;5.57;2.90;;;13.20;97.30;;;;;;5093683;28;20066;-80
2021/09/18 06:22:14;;;;;;;6.00;3.15;;;13.20;97.20;;;;;;5093033;28;20031;-77
2021/09/18 06:24:41;;;;;;;7.80;3.03;;;13.20;97.10;;;;;;5092069;28;20036;-78
2021/09/18 06:27:07;;;;;;;6.82;3.15;;;13.10;97.10;;;;;;5092013;28;20053;-77
2021/09/18 06:29:33;;;;;;;3.53;3.15;;;13.10;97.10;;;;;;5093414;28;20031;-77
2021/09/18 06:31:59;;;;;;;7.65;3.17;;;13.20;97.00;;;;;;5093080;28;20024;-78
2021/09/18 06:34:25;;;;;;;4.18;3.38;;;13.20;97.20;;;;;;5093711;28;20059;-78
2021/09/18 06:36:50;;;;;;;5.30;3.63;;;13.30;96.80;;;;;;5092092;28;20358;-78
2021/09/18 06:39:16;;;;;;;4.53;3.10;;;13.30;96.60;;;;;;5093967;28;20024;-78
2021/09/18 06:41:41;;;;;;;4.85;3.03;;;13.30;96.70;;;;;;5092789;28;20023;-77
2021/09/18 06:44:07;;;;;;;4.93;3.40;;;13.40;96.80;;;;;;5091991;28;20201;-77
2021/09/18 06:46:33;;;;;;;5.00;3.42;;;13.40;96.90;;;;;;5092428;28;20119;-77
2021/09/18 06:48:59;;;;;;;5.63;3.60;;;13.50;97.00;;;;;;5091866;28;20059;-77
2021/09/18 06:51:25;;;;;;;8.13;4.53;;;13.50;97.00;;;;;;5093637;28;20081;-77
2021/09/18 06:53:51;;;;;;;8.80;4.88;;;13.60;97.20;;;;;;5091863;28;20044;-77
2021/09/18 06:56:17;;;;;;;11.27;5.50;;;13.70;97.10;;;;;;5092856;28;20060;-77
2021/09/18 06:58:42;;;;;;;6.78;4.45;;;13.80;97.20;;;;;;5092714;28;20069;-77
2021/09/18 07:01:08;;;;;;;8.60;5.47;;;13.80;97.10;;;;;;5092078;28;20384;-77
2021/09/18 07:03:34;;;;;;;11.40;5.55;;;13.80;97.20;;;;;;5092676;28;20035;-77
2021/09/18 07:06:00;;;;;;;8.90;5.35;;;13.80;97.30;;;;;;5092895;28;20031;-77
2021/09/18 07:08:26;;;;;;;8.85;5.07;;;13.80;97.40;;;;;;5092023;28;20030;-78
2021/09/18 07:10:52;;;;;;;8.07;4.97;;;13.90;97.50;;;;;;5091427;28;20024;-78
2021/09/18 07:13:18;;;;;;;9.65;6.03;;;13.90;97.50;;;;;;5091786;28;20057;-77
2021/09/18 07:15:44;;;;;;;9.63;5.32;;;13.90;97.60;;;;;;5092059;28;20123;-78
2021/09/18 07:18:10;;;;;;;6.93;5.20;;;14.00;97.70;;;;;;5092900;28;20031;-78
2021/09/18 07:20:35;;;;;;;10.20;5.45;;;14.00;97.90;;;;;;5092465;28;20077;-78
2021/09/18 07:23:01;;;;;;;9.35;5.70;;;14.00;97.90;;;;;;5091659;28;20024;-78
2021/09/18 07:25:27;;;;;;;7.75;4.93;;;14.00;98.00;;;;;;5093367;28;20032;-77
2021/09/18 07:27:53;;;;;;;6.47;5.00;;;14.10;98.00;;;;;;5091658;28;20074;-77
2021/09/18 07:30:19;;;;;;;6.80;5.28;;;14.20;98.00;;;;;;5093078;28;20031;-77
2021/09/18 07:32:45;;;;;;;9.07;6.13;;;14.30;97.80;;;;;;5093162;28;20020;-77
2021/09/18 07:35:11;;;;;;;11.73;6.70;;;14.30;97.80;;;;;;5091760;28;20043;-78
2021/09/18 07:37:38;;;;;;;9.63;6.15;;;14.30;97.70;;;;;;5093901;28;20031;-77
2021/09/18 07:40:06;;;;;;;10.18;6.60;;;14.40;97.80;;;;;;5095741;28;20027;-77
2021/09/18 07:42:32;;;;;;;9.55;6.28;;;14.40;97.60;;;;;;5095893;28;20028;-77
2021/09/18 07:44:58;;;;;;;9.93;6.72;;;14.50;97.60;;;;;;5095605;28;20032;-78
2021/09/18 07:47:23;;;;;;;10.73;7.65;;;14.50;97.60;;;;;;5096090;28;20500;-78
2021/09/18 07:49:49;;;;;;;10.00;6.88;;;14.50;97.50;;;;;;5096482;28;20032;-77
2021/09/18 07:52:16;;;;;;;13.75;7.78;;;14.60;97.60;;;;;;5096942;28;20465;-77
2021/09/18 07:54:42;;;;;;;12.65;6.88;;;14.70;97.50;;;;;;5095858;28;20126;-76
2021/09/18 07:57:09;;;;;;;9.90;6.65;;;14.70;97.50;;;;;;5093951;28;20028;-76
2021/09/18 07:59:34;;;;;;;11.77;5.93;;;14.80;97.60;;;;;;5095874;28;20036;-76
2021/09/18 08:02:03;;;;;;;11.70;6.75;;;14.90;97.50;;;;;;5095530;28;20028;-77
2021/09/18 08:04:29;;;;;;;10.30;5.57;;;14.90;97.50;;;;;;5094432;28;20063;-77
2021/09/18 08:06:54;;;;;;;9.63;5.28;;;14.90;97.50;;;;;;5094166;28;20468;-77
2021/09/18 08:09:20;;;;;;;7.75;5.30;;;14.90;97.50;;;;;;5096202;28;20381;-77
2021/09/18 08:11:48;;;;;;;9.93;5.65;;;15.00;97.60;;;;;;5095081;28;20081;-77
2021/09/18 08:14:14;;;;;;;7.57;5.38;;;15.10;97.50;;;;;;5095019;28;20024;-76
2021/09/18 08:16:40;;;;;;;8.95;5.60;;;15.10;97.50;;;;;;5095335;28;20464;-77
2021/09/18 08:19:06;;;;;;;7.65;5.15;;;15.10;97.60;;;;;;5094518;28;20479;-77
2021/09/18 08:21:31;;;;;;;8.98;5.45;;;15.10;97.40;;;;;;5094847;28;20031;-77
2021/09/18 08:23:57;;;;;;;8.65;4.90;;;15.20;97.50;;;;;;5095461;28;20033;-77
2021/09/18 08:26:29;;;;;;;8.65;5.07;;;15.20;97.50;;;;;;5096114;28;20380;-77
2021/09/18 08:28:55;;;;;;;6.80;4.40;;;15.20;97.40;;;;;;5094669;28;20128;-77
2021/09/18 08:31:20;;;;;;;6.35;4.20;;;15.30;97.40;;;;;;5096291;28;20461;-78
2021/09/18 08:33:46;;;;;;;9.38;4.78;;;15.30;97.40;;;;;;5096365;28;20107;-77
2021/09/18 08:36:12;;;;;;;7.32;4.88;;;15.40;97.30;;;;;;5095641;28;20400;-77
2021/09/18 08:38:37;;;;;;;7.57;4.78;;;15.50;97.00;;;;;;5094906;28;20020;-77
2021/09/18 08:41:05;;;;;;;9.15;4.75;;;15.50;97.00;;;;;;5094552;28;20073;-77
2021/09/18 08:43:31;;;;;;;5.43;4.13;;;15.50;97.00;;;;;;5095134;28;20021;-77
2021/09/18 08:45:58;;;;;;;8.73;5.00;;;15.60;97.00;;;;;;5093570;28;20034;-77
2021/09/18 08:48:25;;;;;;;10.23;4.05;;;15.60;97.00;;;;;;5094193;28;20024;-77
2021/09/18 08:50:51;;;;;;;4.88;3.88;;;15.70;96.90;;;;;;5094044;28;20056;-77
2021/09/18 08:53:19;;;;;;;6.18;4.15;;;15.80;97.00;;;;;;5095609;28;20025;-77
2021/09/18 08:55:52;;;;;;;5.93;3.80;;;15.80;96.80;;;;;;5094320;28;20147;-77
2021/09/18 08:58:17;;;;;;;7.25;3.65;;;15.90;96.70;;;;;;5094820;28;20024;-77
2021/09/18 09:00:46;;;;;;;7.32;4.00;;;16.00;96.60;;;;;;5094029;28;20024;-77
2021/09/18 09:03:13;;;;;;;5.88;3.85;;;16.10;96.50;;;;;;5093329;28;20112;-77
2021/09/18 09:05:42;;;;;;;6.82;3.72;;;16.10;96.50;;;;;;5093816;28;20374;-77
2021/09/18 09:08:10;;;;;;;5.35;3.58;;;16.10;96.30;;;;;;5094286;28;20375;-77
2021/09/18 09:10:37;;;;;;;5.57;3.85;;;16.10;96.30;;;;;;5094419;28;20074;-77
2021/09/18 09:13:05;;;;;;;7.10;3.72;;;16.10;96.40;;;;;;5093448;28;20031;-77
2021/09/18 09:15:31;;;;;;;6.38;3.72;;;16.10;96.60;;;;;;5094907;28;20088;-77
2021/09/18 09:18:23;;;;;;;6.70;3.28;;;16.20;96.60;;;;;;5093504;28;20457;-77
2021/09/18 09:21:06;;;;;;;6.05;3.60;;;16.20;96.50;;;;;;5094419;28;20020;-78
2021/09/18 09:23:33;;;;;;;4.72;3.20;;;16.40;96.30;;;;;;5093792;28;20028;-77
2021/09/18 09:25:59;;;;;;;6.88;3.20;;;16.50;96.20;;;;;;5094115;28;20024;-77
2021/09/18 09:28:34;;;;;;;5.43;3.47;;;16.50;96.10;;;;;;5094103;28;20450;-77
2021/09/18 09:31:16;;;;;;;4.30;3.38;;;16.60;95.70;;;;;;5093217;28;20370;-77
2021/09/18 09:34:03;;;;;;;4.00;3.13;;;16.70;95.30;;;;;;5093859;28;20028;-77
2021/09/18 09:36:41;;;;;;;4.07;2.88;;;16.70;95.50;;;;;;5094164;28;20036;-77
2021/09/18 09:39:10;;;;;;;4.45;3.17;;;16.80;95.20;;;;;;5092584;28;20031;-77
2021/09/18 09:41:43;;;;;;;4.13;3.08;;;16.90;95.40;;;;;;5093844;28;20046;-77
2021/09/18 09:44:14;;;;;;;4.97;2.85;;;17.00;95.10;;;;;;5092165;28;20024;-77
2021/09/18 09:46:41;;;;;;;4.22;3.10;;;17.10;94.50;;;;;;5092735;28;20035;-77
2021/09/18 09:49:15;;;;;;;4.97;2.90;;;17.10;93.90;;;;;;5092467;28;20039;-77
2021/09/18 09:51:43;;;;;;;3.28;2.78;;;17.20;94.00;;;;;;5093545;28;20020;-77
2021/09/18 09:54:24;;;;;;;4.82;2.75;;;17.30;93.20;;;;;;5091791;28;20264;-77
2021/09/18 09:57:09;;;;;;;3.80;2.60;;;17.40;93.20;;;;;;5093714;28;20032;-78
2021/09/18 09:59:35;;;;;;;4.13;2.70;;;17.50;93.00;;;;;;5092008;28;20028;-77
2021/09/18 10:02:02;;;;;;;3.05;2.35;;;17.50;92.60;;;;;;5093108;28;20024;-77
2021/09/18 10:04:28;;;;;;;2.70;2.30;;;17.60;92.30;;;;;;5093151;28;20415;-77
2021/09/18 10:06:54;;;;;;;2.45;2.17;;;17.70;92.20;;;;;;5093053;28;20024;-78
2021/09/18 10:09:21;;;;;;;3.15;2.28;;;17.70;92.00;;;;;;5094484;28;20024;-77
2021/09/18 10:11:47;;;;;;;2.50;1.88;;;17.80;91.90;;;;;;5092750;28;20031;-77
2021/09/18 10:14:20;;;;;;;5.63;2.30;;;17.80;91.50;;;;;;5092719;28;20119;-77
2021/09/18 10:16:48;;;;;;;3.97;2.25;;;17.80;90.90;;;;;;5092836;28;20055;-77
2021/09/18 10:19:16;;;;;;;3.20;2.13;;;17.90;91.20;;;;;;5094235;28;20028;-78
2021/09/18 10:24:27;;;;;;;2.42;2.05;;;18.00;91.10;;;;;;5093215;28;20118;-76
2021/09/18 10:27:19;;;;;;;3.58;2.17;;;18.10;90.90;;;;;;5092861;28;20024;-77
2021/09/18 10:29:46;;;;;;;5.03;2.78;;;18.20;90.80;;;;;;5092511;28;20031;-77
2021/09/18 10:32:12;;;;;;;3.72;2.40;;;18.20;90.40;;;;;;5092732;28;20020;-76
2021/09/18 10:34:38;;;;;;;2.65;2.20;;;18.30;90.40;;;;;;5092770;28;20055;-76
2021/09/18 10:37:04;;;;;;;3.58;2.55;;;18.40;90.30;;;;;;5091914;28;20039;-76
2021/09/18 10:39:30;;;;;;;2.53;1.95;;;18.30;90.30;;;;;;5093232;28;20106;-76
2021/09/18 10:42:00;;;;;;;4.22;2.38;;;18.30;90.30;;;;;;5091182;28;20032;-76
2021/09/18 10:44:46;;;;;;;2.22;1.73;;;18.40;90.10;;;;;;5091671;28;20024;-76
2021/09/18 10:47:37;;;;;;;2.58;1.80;;;18.40;89.00;;;;;;5091114;28;20024;-75
2021/09/18 10:50:06;;;;;;;2.85;1.70;;;18.50;90.40;;;;;;5091250;28;20373;-75
2021/09/18 10:52:35;;;;;;;2.22;1.90;;;18.70;90.10;;;;;;5091857;28;20024;-75
2021/09/18 10:55:10;;;;;;;3.03;1.85;;;18.70;89.90;;;;;;5090781;28;20052;-75
2021/09/18 10:57:38;;;;;;;2.38;1.92;;;18.70;88.00;;;;;;5091994;28;20031;-76
2021/09/18 11:00:24;;;;;;;3.45;2.08;;;18.80;89.50;;;;;;5091990;28;20157;-76
2021/09/18 11:02:49;;;;;;;2.90;2.17;;;18.90;86.30;;;;;;5110629;27;20118;-76
2021/09/18 11:05:18;;;;;;;4.18;1.73;;;19.00;88.10;;;;;;5092286;28;20107;-76
2021/09/18 11:07:46;;;;;;;2.67;1.90;;;19.10;86.90;;;;;;5092233;28;20034;-75
2021/09/18 11:10:19;;;;;;;1.98;1.60;;;19.00;86.10;;;;;;5091243;28;20029;-76
2021/09/18 11:13:07;;;;;;;2.20;1.65;;;19.00;86.20;;;;;;5095150;28;20118;-76
2021/09/18 11:15:47;;;;;;;2.28;1.50;;;19.10;87.60;;;;;;5095621;28;20032;-76
2021/09/18 11:18:36;;;;;;;2.15;1.60;;;19.10;86.20;;;;;;5096684;28;20204;-75
2021/09/18 11:21:07;;;;;;;2.28;1.60;;;19.00;84.90;;;;;;5094687;28;20027;-76
2021/09/18 11:23:40;;;;;;;1.50;1.40;;;19.10;85.20;;;;;;5096785;28;20024;-78
2021/09/18 11:26:31;;;;;;;2.00;1.48;;;19.20;84.10;;;;;;5094837;28;20039;-77
2021/09/18 11:29:11;;;;;;;1.70;1.20;;;19.30;84.20;;;;;;5096581;28;20052;-78
2021/09/18 11:31:58;;;;;;;1.70;1.30;;;19.40;84.00;;;;;;5095960;28;20529;-77
2021/09/18 11:34:29;;;;;;;1.83;1.27;;;19.30;83.80;;;;;;5096296;28;20024;-76
2021/09/18 11:36:58;;;;;;;2.22;1.50;;;19.40;85.40;;;;;;5095103;28;20127;-78
2021/09/18 11:39:49;;;;;;;1.73;1.45;;;19.50;84.90;;;;;;5094841;28;20032;-77
2021/09/18 11:42:39;;;;;;;2.42;1.88;;;19.70;85.00;;;;;;5129588;27;20052;-76
2021/09/18 11:45:15;;;;;;;2.42;1.48;;;19.60;84.40;;;;;;5095587;28;20066;-75
2021/09/18 11:47:49;;;;;;;2.55;1.67;;;19.70;83.30;;;;;;5094824;28;20039;-75
2021/09/18 11:50:18;;;;;;;2.47;1.83;;;19.70;82.10;;;;;;5095258;28;20116;-75
2021/09/18 11:52:44;;;;;;;3.63;1.95;;;19.80;82.50;;;;;;5095073;28;20051;-75
2021/09/18 11:55:25;;;;;;;1.92;1.67;;;19.90;81.50;;;;;;5094445;28;20189;-76
2021/09/18 11:58:00;;;;;;;;;;;20.10;82.80;;;;;;5095125;28;20024;-77
2021/09/18 12:00:26;;;;;;;2.53;1.75;;;20.30;82.20;;;;;;5095813;28;19904;-83
2021/09/18 12:02:58;;;;;;;2.55;1.73;;;20.30;81.60;;;;;;5094925;28;20028;-78
2021/09/18 12:05:24;;;;;;;2.22;1.73;;;20.60;81.60;;;;;;5094935;28;20097;-77
2021/09/18 12:07:51;;;;;;;1.63;1.50;;;20.80;80.20;;;;;;5094428;28;20035;-77
2021/09/18 12:10:21;;;;;;;6.65;1.80;;;20.90;79.90;;;;;;5094603;28;20488;-76
2021/09/18 12:12:54;;;;;;;4.22;2.60;;;21.10;79.00;;;;;;5094636;28;20488;-76
2021/09/18 12:15:35;;;;;;;2.03;1.75;;;21.30;77.90;;;;;;5095250;28;20036;-75
2021/09/18 12:18:02;;;;;;;3.50;2.03;;;21.50;77.50;;;;;;5094350;28;20024;-76
2021/09/18 12:20:29;;;;;;;2.63;1.60;;;21.70;76.40;;;;;;5095575;28;20031;-76
2021/09/18 12:22:54;;;;;;;2.30;1.40;;;21.80;74.40;;;;;;5094197;28;20053;-83
2021/09/18 12:25:28;;;;;;;3.55;1.60;;;22.10;76.20;;;;;;5095814;28;20028;-76
2021/09/18 12:28:02;;;;;;;2.25;1.40;;;22.20;73.30;;;;;;5093824;28;20020;-76
2021/09/18 12:30:40;;;;;;;2.92;1.58;;;22.40;72.70;;;;;;5095846;28;20047;-77
2021/09/18 12:33:09;;;;;;;1.90;1.55;;;22.70;70.70;;;;;;5094700;28;20362;-76
2021/09/18 12:35:46;;;;;;;2.90;1.73;;;22.80;70.90;;;;;;5094340;28;20059;-77
2021/09/18 12:38:14;;;;;;;2.92;1.50;;;22.50;71.70;;;;;;5093443;28;20024;-76
2021/09/18 12:40:46;;;;;;;1.60;1.50;;;22.60;68.70;;;;;;5093983;28;20358;-77
2021/09/18 12:43:20;;;;;;;2.10;1.48;;;22.80;67.60;;;;;;5077292;28;20047;-75
2021/09/18 12:45:48;;;;;;;1.75;1.58;;;23.00;64.60;;;;;;5073135;28;20477;-75
2021/09/18 12:48:19;;;;;;;1.40;1.30;;;23.20;64.50;;;;;;5072427;28;20025;-75
2021/09/18 12:50:58;;;;;;;1.63;1.40;;;23.30;63.30;;;;;;5074332;28;20623;-75
2021/09/18 12:53:25;;;;;;;1.40;1.30;;;23.10;62.60;;;;;;5090272;28;20058;-75